createdAt,value
2018-08-09T10:01:36.143Z,123.75
2018-08-09T10:02:36.067Z,123.75
2018-08-09T10:03:36.038Z,123.75
2018-08-09T10:04:36.007Z,123.75
2018-08-09T10:05:35.965Z,123.75
2018-08-09T10:06:35.939Z,118.12
2018-08-09T10:07:35.893Z,118.12
2018-08-09T10:08:35.837Z,118.12
2018-08-09T10:09:35.784Z,118.12
2018-08-09T10:10:35.738Z,118.12
2018-08-09T10:11:35.693Z,118.12
2018-08-09T10:12:35.654Z,118.12
2018-08-09T10:13:35.617Z,118.12
2018-08-09T10:14:35.552Z,118.12
2018-08-09T10:15:35.487Z,123.75
2018-08-09T10:16:35.435Z,123.75
2018-08-09T10:17:35.382Z,123.75
2018-08-09T10:18:35.328Z,123.75
2018-08-09T10:19:35.293Z,123.75
2018-08-09T10:20:35.235Z,123.75
2018-08-09T10:21:35.197Z,123.75
2018-08-09T10:22:35.142Z,123.75
2018-08-09T10:23:35.104Z,123.75
2018-08-09T10:24:35.055Z,123.75
2018-08-09T10:25:35.027Z,123.75
2018-08-09T10:26:34.971Z,123.75
2018-08-09T10:27:34.923Z,118.12
2018-08-09T10:28:34.875Z,123.75
2018-08-09T10:29:34.833Z,123.75
2018-08-09T10:30:34.776Z,118.12
2018-08-09T10:31:34.773Z,118.12
2018-08-09T10:32:34.679Z,118.12
2018-08-09T10:33:34.622Z,118.12
2018-08-09T10:34:34.585Z,118.12
2018-08-09T10:35:34.591Z,118.12
2018-08-09T10:36:34.495Z,118.12
2018-08-09T10:37:34.495Z,118.12
2018-08-09T10:38:34.401Z,118.12
2018-08-09T10:39:34.345Z,118.12
2018-08-09T10:40:34.298Z,118.12
2018-08-09T10:41:34.258Z,118.12
2018-08-09T10:42:34.213Z,118.12
2018-08-09T10:43:34.168Z,118.12
2018-08-09T10:44:34.104Z,118.12
2018-08-09T10:45:34.047Z,118.12
2018-08-09T10:46:33.995Z,118.12
2018-08-09T10:47:33.936Z,118.12
2018-08-09T10:48:33.880Z,118.12
2018-08-09T10:49:33.846Z,118.12
2018-08-09T10:50:33.776Z,112.50
2018-08-09T10:51:33.732Z,118.12
2018-08-09T10:52:33.672Z,123.75
2018-08-09T10:53:33.625Z,123.75
2018-08-09T10:54:33.579Z,123.75
2018-08-09T10:55:33.570Z,123.75
2018-08-09T10:56:33.472Z,118.12
2018-08-09T10:57:33.424Z,123.75
2018-08-09T10:58:33.356Z,0.00
2018-08-09T10:59:53.241Z,286.88
2018-08-09T11:00:53.231Z,286.88
2018-08-09T11:01:53.177Z,281.25
2018-08-09T11:02:53.143Z,281.25
2018-08-09T11:03:53.110Z,281.25
2018-08-09T11:04:53.077Z,281.25
2018-08-09T11:05:53.040Z,275.62
2018-08-09T11:06:53.018Z,281.25
2018-08-09T11:07:52.971Z,275.62
2018-08-09T11:08:52.917Z,275.62
2018-08-09T11:09:52.910Z,275.62
2018-08-09T11:10:52.843Z,286.88
2018-08-09T11:11:52.773Z,275.62
2018-08-09T11:12:52.741Z,275.62
2018-08-09T11:13:52.669Z,275.62
2018-08-09T11:14:52.609Z,275.62
2018-08-09T11:15:52.572Z,281.25
2018-08-09T11:16:52.532Z,275.62
2018-08-09T11:17:52.448Z,275.62
2018-08-09T11:18:52.398Z,275.62
2018-08-09T11:19:52.338Z,281.25
2018-08-09T11:20:52.281Z,281.25
2018-08-09T11:21:52.237Z,281.25
2018-08-09T11:22:52.192Z,281.25
2018-08-09T11:23:52.114Z,286.88
2018-08-09T11:24:52.091Z,286.88
2018-08-09T11:25:52.015Z,281.25
2018-08-09T11:26:51.961Z,281.25
2018-08-09T11:27:51.939Z,281.25
2018-08-09T11:28:51.889Z,281.25
2018-08-09T11:29:51.835Z,286.88
2018-08-09T11:30:51.789Z,286.88
2018-08-09T11:31:51.746Z,292.50
2018-08-09T11:32:51.703Z,281.25
2018-08-09T11:33:51.666Z,281.25
2018-08-09T11:34:51.591Z,292.50
2018-08-09T11:35:51.539Z,286.88
2018-08-09T11:36:51.507Z,292.50
2018-08-09T11:37:51.459Z,298.12
2018-08-09T11:38:51.398Z,298.12
2018-08-09T11:39:51.447Z,292.50
2018-08-09T11:40:51.286Z,292.50
2018-08-09T11:41:51.236Z,292.50
2018-08-09T11:42:51.187Z,292.50
2018-08-09T11:43:51.126Z,292.50
2018-08-09T11:44:51.093Z,292.50
2018-08-09T11:45:51.022Z,292.50
2018-08-09T11:46:50.943Z,292.50
2018-08-09T11:47:50.898Z,298.12
2018-08-09T11:48:50.833Z,298.12
2018-08-09T11:49:50.797Z,298.12
2018-08-09T11:50:50.722Z,298.12
2018-08-09T11:51:50.703Z,298.12
2018-08-09T11:52:50.606Z,303.75
2018-08-09T11:53:50.540Z,303.75
2018-08-09T11:54:50.486Z,303.75
2018-08-09T11:55:50.442Z,303.75
2018-08-09T11:56:50.373Z,303.75
2018-08-09T11:57:50.319Z,309.38
2018-08-09T11:58:50.239Z,309.38
2018-08-09T11:59:50.176Z,309.38
2018-08-09T12:00:50.131Z,309.38
2018-08-09T12:01:50.101Z,315.00
2018-08-09T12:02:49.988Z,315.00
2018-08-09T12:03:49.942Z,315.00
2018-08-09T12:04:49.864Z,320.62
2018-08-09T12:05:49.800Z,320.62
2018-08-09T12:06:49.756Z,320.62
2018-08-09T12:07:49.678Z,326.25
2018-08-09T12:08:49.609Z,326.25
2018-08-09T12:09:49.539Z,326.25
2018-08-09T12:10:49.472Z,331.88
2018-08-09T12:11:49.441Z,331.88
2018-08-09T12:12:49.364Z,337.50
2018-08-09T12:13:49.321Z,337.50
2018-08-09T12:14:49.224Z,337.50
2018-08-09T12:15:49.161Z,348.75
2018-08-09T12:16:49.075Z,343.12
2018-08-09T12:17:49.030Z,343.12
2018-08-09T12:18:48.930Z,348.75
2018-08-09T12:19:48.856Z,348.75
2018-08-09T12:20:48.894Z,348.75
2018-08-09T12:21:48.755Z,348.75
2018-08-09T12:22:48.664Z,354.38
2018-08-09T12:23:48.586Z,360.00
2018-08-09T12:24:48.532Z,360.00
2018-08-09T12:25:48.475Z,360.00
2018-08-09T12:26:39.947Z,365.62
2018-08-09T12:27:39.946Z,371.25
2018-08-09T12:28:39.916Z,365.62
2018-08-09T12:29:39.970Z,371.25
2018-08-09T12:30:39.897Z,371.25
2018-08-09T12:31:39.892Z,371.25
2018-08-09T12:32:39.886Z,376.88
2018-08-09T12:33:39.892Z,376.88
2018-08-09T12:34:39.862Z,382.50
2018-08-09T12:35:39.847Z,382.50
2018-08-09T12:36:39.902Z,382.50
2018-08-09T12:37:39.822Z,388.12
2018-08-09T12:38:39.857Z,382.50
2018-08-09T12:39:39.822Z,388.12
2018-08-09T12:40:39.796Z,388.12
2018-08-09T12:41:46.842Z,427.50
2018-08-09T12:42:39.770Z,427.50
2018-08-09T12:43:39.762Z,427.50
2018-08-09T12:44:39.750Z,433.12
2018-08-09T12:45:39.901Z,433.12
2018-08-09T12:46:39.753Z,438.75
2018-08-09T12:47:39.720Z,438.75
2018-08-09T12:48:39.708Z,444.38
2018-08-09T12:49:39.698Z,444.38
2018-08-09T12:50:39.698Z,444.38
2018-08-09T12:51:39.718Z,450.00
2018-08-09T12:52:39.667Z,450.00
2018-08-09T12:53:39.657Z,455.62
2018-08-09T12:54:39.641Z,450.00
2018-08-09T12:55:39.631Z,461.25
2018-08-09T12:56:39.623Z,461.25
2018-08-09T12:57:39.631Z,461.25
2018-08-09T12:58:39.611Z,466.88
2018-08-09T12:59:39.599Z,472.50
2018-08-09T13:00:39.582Z,472.50
2018-08-09T13:01:39.576Z,466.88
2018-08-09T13:02:39.578Z,472.50
2018-08-09T13:03:39.571Z,472.50
2018-08-09T13:04:39.541Z,478.12
2018-08-09T13:05:39.558Z,478.12
2018-08-09T13:06:39.528Z,478.12
2018-08-09T13:07:39.520Z,483.75
2018-08-09T13:08:39.497Z,483.75
2018-08-09T13:09:39.504Z,489.38
2018-08-09T13:10:39.493Z,489.38
2018-08-09T13:11:39.463Z,495.00
2018-08-09T13:12:39.454Z,500.62
2018-08-09T13:13:39.451Z,500.62
2018-08-09T13:14:39.440Z,500.62
2018-08-09T13:15:39.439Z,500.62
2018-08-09T13:16:39.413Z,506.25
2018-08-09T13:17:39.404Z,506.25
2018-08-09T13:18:39.404Z,500.62
2018-08-09T13:19:39.393Z,506.25
2018-08-09T13:20:39.388Z,511.88
2018-08-09T13:21:39.389Z,511.88
2018-08-09T13:22:39.365Z,517.50
2018-08-09T13:23:39.355Z,517.50
2018-08-09T13:24:39.347Z,528.75
2018-08-09T13:25:39.337Z,528.75
2018-08-09T13:26:39.327Z,534.38
2018-08-09T13:27:39.334Z,534.38
2018-08-09T13:28:39.327Z,534.38
2018-08-09T13:29:39.298Z,545.62
2018-08-09T13:30:39.297Z,540.00
2018-08-09T13:31:39.281Z,551.25
2018-08-09T13:32:39.272Z,562.50
2018-08-09T13:33:39.309Z,562.50
2018-08-09T13:34:39.262Z,556.88
2018-08-09T13:35:39.247Z,568.12
2018-08-09T13:36:39.240Z,579.38
2018-08-09T13:37:39.233Z,590.62
2018-08-09T13:38:39.232Z,579.38
2018-08-09T13:39:39.236Z,590.62
2018-08-09T13:40:39.204Z,601.88
2018-08-09T13:41:39.206Z,607.50
2018-08-09T13:42:39.197Z,618.75
2018-08-09T13:43:39.199Z,624.38
2018-08-09T13:44:39.268Z,641.25
2018-08-09T13:45:39.712Z,646.88
2018-08-09T13:46:39.267Z,663.75
2018-08-09T13:47:39.238Z,669.38
2018-08-09T13:48:39.714Z,680.62
2018-08-09T13:49:39.703Z,697.50
2018-08-09T13:50:39.132Z,720.00
2018-08-09T13:51:39.109Z,736.88
2018-08-09T13:52:39.161Z,753.75
2018-08-09T13:53:39.107Z,770.62
2018-08-09T13:54:39.087Z,793.12
2018-08-09T13:55:39.077Z,804.38
2018-08-09T13:56:39.068Z,849.38
2018-08-09T13:57:39.059Z,871.88
2018-08-09T13:58:39.057Z,894.38
2018-08-09T13:59:39.068Z,922.50
2018-08-09T14:00:39.046Z,945.00
2018-08-09T14:01:39.028Z,961.88
2018-08-09T14:02:39.035Z,978.75
2018-08-09T14:03:39.011Z,1001.25
2018-08-09T14:04:39.004Z,1012.50
2018-08-09T14:05:39.020Z,1023.75
2018-08-09T14:06:38.987Z,1035.00
2018-08-09T14:07:38.994Z,1051.88
2018-08-09T14:08:38.965Z,1051.88
2018-08-09T14:09:38.955Z,1068.75
2018-08-09T14:10:38.991Z,1080.00
2018-08-09T14:11:38.956Z,1085.62
2018-08-09T14:12:38.933Z,1085.62
2018-08-09T14:13:38.931Z,1125.00
2018-08-09T14:14:38.924Z,1113.75
2018-08-09T14:15:38.916Z,1125.00
2018-08-09T14:16:38.897Z,1147.50
2018-08-09T14:17:38.930Z,1209.38
2018-08-09T14:18:38.886Z,1299.38
2018-08-09T14:19:38.873Z,1333.12
2018-08-09T14:20:38.862Z,1361.25
2018-08-09T14:21:38.856Z,1366.88
2018-08-09T14:22:38.870Z,1366.88
2018-08-09T14:23:38.852Z,1372.50
2018-08-09T14:24:38.918Z,1383.75
2018-08-09T14:25:38.824Z,1350.00
2018-08-09T14:26:38.808Z,1350.00
2018-08-09T14:27:38.803Z,1355.62
2018-08-09T14:28:38.807Z,1361.25
2018-08-09T14:29:38.782Z,1372.50
2018-08-09T14:30:38.778Z,1389.38
2018-08-09T14:31:38.885Z,1400.62
2018-08-09T14:32:38.762Z,1406.25
2018-08-09T14:33:38.796Z,1411.88
2018-08-09T14:34:38.757Z,1434.38
2018-08-09T14:35:38.734Z,1462.50
2018-08-09T14:36:38.746Z,1451.25
2018-08-09T14:37:38.771Z,1451.25
2018-08-09T14:38:38.744Z,1479.38
2018-08-09T14:39:38.719Z,1485.00
2018-08-09T14:40:38.716Z,1518.75
2018-08-09T14:41:38.684Z,1513.12
2018-08-09T14:42:38.742Z,1513.12
2018-08-09T14:43:38.670Z,1524.38
2018-08-09T14:44:38.653Z,1552.50
2018-08-09T14:45:38.645Z,1563.75
2018-08-09T14:46:38.653Z,1530.00
2018-08-09T14:47:38.629Z,1541.25
2018-08-09T14:48:38.667Z,1552.50
2018-08-09T14:49:38.617Z,1575.00
2018-08-09T14:50:38.608Z,1591.88
2018-08-09T14:51:38.603Z,1614.38
2018-08-09T14:52:38.627Z,1631.25
2018-08-09T14:53:38.603Z,1046.25
2018-08-09T14:54:38.593Z,1310.62
2018-08-09T14:55:38.573Z,765.00
2018-08-09T14:56:38.552Z,1395.00
2018-08-09T14:57:38.573Z,950.62
2018-08-09T14:58:38.567Z,1018.12
2018-08-09T14:59:38.528Z,1372.50
2018-08-09T15:00:38.538Z,1344.38
2018-08-09T15:01:38.515Z,933.75
2018-08-09T15:02:38.508Z,883.12
2018-08-09T15:03:38.486Z,849.38
2018-08-09T15:04:38.504Z,849.38
2018-08-09T15:05:38.486Z,995.62
2018-08-09T15:06:38.472Z,810.00
2018-08-09T15:07:38.456Z,765.00
2018-08-09T15:08:38.441Z,770.62
2018-08-09T15:09:38.440Z,646.88
2018-08-09T15:10:38.456Z,596.25
2018-08-09T15:11:38.416Z,466.88
2018-08-09T15:12:38.408Z,489.38
2018-08-09T15:13:38.397Z,506.25
2018-08-09T15:14:38.382Z,444.38
2018-08-09T15:15:38.410Z,438.75
2018-08-09T15:16:38.392Z,461.25
2018-08-09T15:17:38.360Z,455.62
2018-08-09T15:18:38.381Z,545.62
2018-08-09T15:19:38.356Z,495.00
2018-08-09T15:20:39.236Z,528.75
2018-08-09T15:21:38.325Z,455.62
2018-08-09T15:22:38.361Z,466.88
2018-08-09T15:23:38.367Z,478.12
2018-08-09T15:24:38.333Z,613.12
2018-08-09T15:25:38.290Z,511.88
2018-08-09T15:26:38.278Z,556.88
2018-08-09T15:27:38.273Z,506.25
2018-08-09T15:28:38.292Z,663.75
2018-08-09T15:29:38.242Z,652.50
2018-08-09T15:30:38.229Z,511.88
2018-08-09T15:31:38.218Z,511.88
2018-08-09T15:32:38.198Z,534.38
2018-08-09T15:33:38.262Z,551.25
2018-08-09T15:34:38.208Z,556.88
2018-08-09T15:35:38.174Z,703.12
2018-08-09T15:36:38.162Z,961.88
2018-08-09T15:37:38.151Z,1243.12
2018-08-09T15:38:38.140Z,1035.00
2018-08-09T15:39:38.159Z,1091.25
2018-08-09T15:40:38.126Z,1783.12
2018-08-09T15:41:38.112Z,1884.38
2018-08-09T15:42:38.113Z,1721.25
2018-08-09T15:43:38.094Z,714.38
2018-08-09T15:44:38.078Z,669.38
2018-08-09T15:45:38.144Z,1203.75
2018-08-09T15:46:38.061Z,1828.12
2018-08-09T15:47:38.168Z,1816.88
2018-08-09T15:48:38.038Z,1845.00
2018-08-09T15:49:38.031Z,1839.38
2018-08-09T15:50:38.041Z,1833.75
2018-08-09T15:51:38.045Z,1833.75
2018-08-09T15:52:38.004Z,1816.88
2018-08-09T15:53:37.994Z,1805.62
2018-08-09T15:54:37.990Z,1788.75
2018-08-09T15:55:37.975Z,1794.38
2018-08-09T15:56:37.975Z,1777.50
2018-08-09T15:57:37.976Z,1771.88
2018-08-09T15:58:37.947Z,1771.88
2018-08-09T15:59:37.936Z,1771.88
2018-08-09T16:00:37.924Z,1760.62
2018-08-09T16:01:37.923Z,1738.12
2018-08-09T16:02:38.005Z,1732.50
2018-08-09T16:03:37.911Z,1715.62
2018-08-09T16:04:37.889Z,1710.00
2018-08-09T16:05:37.881Z,1715.62
2018-08-09T16:06:37.867Z,1698.75
2018-08-09T16:07:37.882Z,1693.12
2018-08-09T16:08:37.851Z,1693.12
2018-08-09T16:09:37.867Z,1670.62
2018-08-09T16:10:37.832Z,1687.50
2018-08-09T16:11:37.853Z,1693.12
2018-08-09T16:12:37.820Z,1698.75
2018-08-09T16:13:37.801Z,1693.12
2018-08-09T16:14:37.809Z,1687.50
2018-08-09T16:15:37.810Z,1687.50
2018-08-09T16:16:37.773Z,1687.50
2018-08-09T16:17:37.763Z,1693.12
2018-08-09T16:18:37.759Z,1693.12
2018-08-09T16:19:37.756Z,1687.50
2018-08-09T16:20:37.744Z,1687.50
2018-08-09T16:21:37.789Z,1676.25
2018-08-09T16:22:37.749Z,1665.00
2018-08-09T16:24:37.715Z,1625.62
2018-08-09T16:25:37.687Z,1620.00
2018-08-09T16:26:37.683Z,1603.12
2018-08-09T16:27:37.686Z,1591.88
2018-08-09T16:28:37.657Z,1580.62
2018-08-09T16:29:37.649Z,1580.62
2018-08-09T16:30:37.651Z,1575.00
2018-08-09T16:31:37.635Z,1575.00
2018-08-09T16:32:37.644Z,1558.12
2018-08-09T16:33:37.629Z,1546.88
2018-08-09T16:34:37.603Z,1507.50
2018-08-09T16:35:37.665Z,1513.12
2018-08-09T16:36:37.584Z,1513.12
2018-08-09T16:37:37.577Z,1490.62
2018-08-09T16:38:37.623Z,1479.38
2018-08-09T16:39:37.569Z,1456.88
2018-08-09T16:40:37.551Z,1451.25
2018-08-09T16:41:37.534Z,1468.12
2018-08-09T16:42:37.542Z,1445.62
2018-08-09T16:43:37.515Z,1445.62
2018-08-09T16:44:37.507Z,1434.38
2018-08-09T16:45:37.558Z,1417.50
2018-08-09T16:46:37.483Z,1383.75
2018-08-09T16:47:37.476Z,1361.25
2018-08-09T16:48:37.468Z,1344.38
2018-08-09T16:49:37.468Z,1299.38
2018-08-09T16:50:37.452Z,348.75
2018-08-09T16:51:37.458Z,360.00
2018-08-09T16:52:37.427Z,376.88
2018-08-09T16:53:37.431Z,961.88
2018-08-09T16:54:37.410Z,686.25
2018-08-09T16:55:37.403Z,635.62
2018-08-09T16:56:37.418Z,540.00
2018-08-09T16:57:37.399Z,826.88
2018-08-09T16:58:37.368Z,939.38
2018-08-09T16:59:37.359Z,714.38
2018-08-09T17:00:37.362Z,264.38
2018-08-09T17:01:37.346Z,236.25
2018-08-09T17:02:37.338Z,230.62
2018-08-09T17:03:37.342Z,225.00
2018-08-09T17:04:37.359Z,230.62
2018-08-09T17:05:37.308Z,230.62
2018-08-09T17:06:37.362Z,225.00
2018-08-09T17:07:37.312Z,202.50
2018-08-09T17:08:37.306Z,236.25
2018-08-09T17:09:37.273Z,236.25
2018-08-09T17:10:37.249Z,230.62
2018-08-09T17:11:37.247Z,230.62
2018-08-09T17:12:37.248Z,219.38
2018-08-09T17:13:37.224Z,196.88
2018-08-09T17:14:37.240Z,208.12
2018-08-09T17:15:37.202Z,196.88
2018-08-09T17:16:37.189Z,208.12
2018-08-09T17:17:37.191Z,213.75
2018-08-09T17:18:37.169Z,213.75
2018-08-09T17:19:37.158Z,213.75
2018-08-09T17:20:37.169Z,213.75
2018-08-09T17:21:37.206Z,230.62
2018-08-09T17:22:37.125Z,292.50
2018-08-09T17:23:37.108Z,590.62
2018-08-09T17:24:37.098Z,675.00
2018-08-09T17:25:37.144Z,675.00
2018-08-09T17:26:37.107Z,703.12
2018-08-09T17:27:37.101Z,641.25
2018-08-09T17:28:37.062Z,433.12
2018-08-09T17:29:37.074Z,270.00
2018-08-09T17:30:37.055Z,270.00
2018-08-09T17:31:37.038Z,270.00
2018-08-09T17:32:37.024Z,270.00
2018-08-09T17:33:37.002Z,270.00
2018-08-09T17:34:37.014Z,264.38
2018-08-09T17:35:36.991Z,253.12
2018-08-09T17:36:36.977Z,253.12
2018-08-09T17:37:37.019Z,241.88
2018-08-09T17:38:36.954Z,241.88
2018-08-09T17:39:36.932Z,236.25
2018-08-09T17:40:36.957Z,230.62
2018-08-09T17:41:36.935Z,225.00
2018-08-09T17:42:36.904Z,225.00
2018-08-09T17:43:36.911Z,213.75
2018-08-09T17:44:36.899Z,213.75
2018-08-09T17:45:36.882Z,196.88
2018-08-09T17:46:36.867Z,185.62
2018-08-09T17:47:36.865Z,174.38
2018-08-09T17:48:36.860Z,168.75
2018-08-09T17:49:36.960Z,157.50
2018-08-09T17:50:36.818Z,146.25
2018-08-09T17:51:36.813Z,146.25
2018-08-09T17:52:36.811Z,135.00
2018-08-09T17:53:36.786Z,129.38
2018-08-09T17:54:36.787Z,118.12
2018-08-09T17:55:36.782Z,112.50
2018-08-09T17:56:36.757Z,101.25
2018-08-09T17:57:36.751Z,95.62
2018-08-09T17:58:36.742Z,90.00
2018-08-09T17:59:36.727Z,84.38
2018-08-09T18:00:36.715Z,84.38
2018-08-09T18:01:36.718Z,78.75
2018-08-09T18:02:36.689Z,78.75
2018-08-09T18:03:36.682Z,73.12
2018-08-09T18:04:36.702Z,73.12
2018-08-09T18:05:36.662Z,67.50
2018-08-09T18:06:36.651Z,67.50
2018-08-09T18:07:36.693Z,67.50
2018-08-09T18:08:36.672Z,67.50
2018-08-09T18:09:36.626Z,56.25
2018-08-09T18:10:36.668Z,56.25
2018-08-09T18:11:36.642Z,50.62
2018-08-09T18:12:36.605Z,50.62
2018-08-09T18:13:36.638Z,45.00
2018-08-09T18:14:36.558Z,39.38
2018-08-09T18:15:36.552Z,39.38
2018-08-09T18:16:36.545Z,33.75
2018-08-09T18:17:36.544Z,33.75
2018-08-09T18:18:36.534Z,28.12
2018-08-09T18:19:36.531Z,28.12
2018-08-09T18:20:36.512Z,22.50
2018-08-09T18:21:36.501Z,22.50
2018-08-09T18:22:36.479Z,16.88
2018-08-09T18:23:36.469Z,16.88
2018-08-09T18:24:36.473Z,16.88
2018-08-09T18:25:36.463Z,11.25
2018-08-09T18:26:36.478Z,11.25
2018-08-09T18:27:36.493Z,11.25
2018-08-09T18:28:36.414Z,5.62
2018-08-09T18:29:36.412Z,5.62
2018-08-09T18:30:36.396Z,5.62
2018-08-09T18:31:36.435Z,5.62
2018-08-09T18:32:36.375Z,5.62
2018-08-09T18:33:36.381Z,5.62
2018-08-09T18:34:36.355Z,0.00
2018-08-09T18:35:36.345Z,0.00
2018-08-09T18:36:36.359Z,0.00
2018-08-09T18:37:36.356Z,0.00
2018-08-09T18:38:36.333Z,0.00
2018-08-09T18:39:36.314Z,0.00
2018-08-09T18:40:36.291Z,0.00
2018-08-09T18:41:36.277Z,0.00
2018-08-09T18:42:36.274Z,0.00
2018-08-09T18:43:36.345Z,0.00
2018-08-09T18:44:36.242Z,0.00
2018-08-09T18:45:36.265Z,0.00
2018-08-09T18:46:36.218Z,0.00
2018-08-09T18:47:36.215Z,0.00
2018-08-09T18:48:36.206Z,0.00
2018-08-09T18:49:36.316Z,0.00
2018-08-09T18:50:36.181Z,0.00
2018-08-09T18:51:36.176Z,0.00
2018-08-09T18:52:36.181Z,0.00
2018-08-09T18:53:36.144Z,0.00
2018-08-09T18:54:36.164Z,0.00
2018-08-09T18:55:36.277Z,0.00
2018-08-09T18:56:36.111Z,0.00
2018-08-09T18:57:36.103Z,0.00
2018-08-09T18:58:36.093Z,0.00
2018-08-09T18:59:36.091Z,0.00
2018-08-09T19:00:36.090Z,0.00
2018-08-09T19:01:36.075Z,0.00
2018-08-09T19:02:36.056Z,0.00
2018-08-09T19:03:36.043Z,0.00
2018-08-09T19:04:36.035Z,0.00
2018-08-09T19:05:36.016Z,0.00
2018-08-09T19:06:36.024Z,0.00
2018-08-09T19:07:36.009Z,0.00
2018-08-09T19:08:36.008Z,0.00
2018-08-09T19:09:35.977Z,0.00
2018-08-09T19:10:35.968Z,0.00
2018-08-09T19:11:35.960Z,0.00
2018-08-09T19:12:35.958Z,0.00
2018-08-09T19:13:35.948Z,0.00
2018-08-09T19:14:35.936Z,0.00
2018-08-09T19:15:35.949Z,0.00
2018-08-09T19:16:35.927Z,0.00
2018-08-09T19:17:35.910Z,0.00
2018-08-09T19:18:35.900Z,0.00
2018-08-09T19:19:35.953Z,0.00
2018-08-09T19:20:35.882Z,0.00
2018-08-09T19:21:35.863Z,0.00
2018-08-09T19:22:35.841Z,0.00
2018-08-09T19:23:35.856Z,0.00
2018-08-09T19:24:35.842Z,0.00
2018-08-09T19:25:35.821Z,0.00
2018-08-09T19:26:35.795Z,0.00
2018-08-09T19:27:35.803Z,0.00
2018-08-09T19:28:35.781Z,0.00
2018-08-09T19:29:35.803Z,0.00
2018-08-09T19:30:35.771Z,0.00
2018-08-09T19:31:35.749Z,0.00
2018-08-09T19:32:35.750Z,0.00
2018-08-09T19:33:35.721Z,0.00
2018-08-09T19:34:35.711Z,0.00
2018-08-09T19:35:35.701Z,0.00
2018-08-09T19:36:35.708Z,0.00
2018-08-09T19:37:35.702Z,0.00
2018-08-09T19:38:35.681Z,0.00
2018-08-09T19:39:35.662Z,0.00
2018-08-09T19:40:35.641Z,0.00
2018-08-09T19:41:35.633Z,0.00
2018-08-09T19:42:35.656Z,0.00
2018-08-09T19:43:35.633Z,0.00
2018-08-09T19:44:35.610Z,0.00
2018-08-09T19:45:35.591Z,0.00
2018-08-09T19:46:35.596Z,0.00
2018-08-09T19:47:35.592Z,0.00
2018-08-09T19:48:35.612Z,0.00
2018-08-09T19:49:35.565Z,0.00
2018-08-09T19:50:35.597Z,0.00
2018-08-09T19:51:35.667Z,0.00
2018-08-09T19:52:35.809Z,0.00
2018-08-09T19:53:36.168Z,0.00
2018-08-09T19:54:36.581Z,0.00
2018-08-09T19:55:37.143Z,0.00
